GNB weather

Grenoble-Isère Airport
Grenoble/Saint-Geoirs, Rhône Alpes, France

Public forecast

Using degrees Celsius for public forecast. Weather courtesy of forecast.io.

METAR (pilot weather report)

Retrieved 2019/07/21 05:30 UTC (7 minutes ago):

LFLS 210530Z AUTO 10003KT 9999 OVC056 20/13 Q1022 NOSIG

TAF (pilot weather forecast)

Retrieved 2019/07/21 03:42 UTC (2 hours ago):

TAF LFLS 210200Z 2103/2203 22006KT CAVOK BECMG 2108/2111 36005KT TEMPO 2113/2115 FEW080TCU BECMG 2121/2124 09005KT